Time;durP1;ratioP1;P1;durP2;ratioP2;P2;SDS_P1;SDS_P2;PMS_P1;PMS_P2;Temp;Humidity;BMP_temperature;BMP_pressure;BME280_temperature;BME280_humidity;BME280_pressure;Samples;Min_cycle;Max_cycle;Signal;HPM_P1;HPM_P2
2022/02/08 00:00:14;;;;;;;10.93;5.43;;;3.00;99.90;;;;;;5083970;28;20208;-92
2022/02/08 00:02:47;;;;;;;10.53;5.90;;;3.00;99.90;;;;;;5087509;28;20470;-93
2022/02/08 00:05:17;;;;;;;7.03;4.93;;;3.00;99.90;;;;;;5077857;28;20437;-91
2022/02/08 00:07:47;;;;;;;7.60;5.30;;;3.00;99.90;;;;;;5091890;28;20426;-90
2022/02/08 00:10:16;;;;;;;9.40;6.00;;;3.00;99.90;;;;;;5087862;28;20453;-88
2022/02/08 00:12:52;;;;;;;11.67;5.70;;;3.00;99.90;;;;;;5077118;28;20458;-94
2022/02/08 00:15:21;;;;;;;11.17;5.10;;;2.90;99.90;;;;;;5093491;28;20456;-92
2022/02/08 00:17:48;;;;;;;11.18;4.63;;;2.90;99.90;;;;;;5091880;28;20456;-91
2022/02/08 00:20:16;;;;;;;15.53;6.00;;;2.90;99.90;;;;;;5079059;28;20208;-91
2022/02/08 00:22:43;;;;;;;8.47;5.50;;;2.90;99.90;;;;;;5085504;28;20470;-91
2022/02/08 00:25:10;;;;;;;12.50;5.47;;;3.00;99.90;;;;;;5083758;28;20427;-90
2022/02/08 00:27:37;;;;;;;8.80;4.97;;;3.00;99.90;;;;;;5099969;28;20426;-90
2022/02/08 00:30:05;;;;;;;13.23;4.70;;;2.90;99.90;;;;;;5084541;28;20421;-89
2022/02/08 00:32:32;;;;;;;10.95;4.60;;;2.90;99.90;;;;;;5072230;28;20228;-91
2022/02/08 00:34:59;;;;;;;10.37;4.23;;;3.00;99.90;;;;;;5070937;28;20217;-91
2022/02/08 00:37:27;;;;;;;7.73;4.33;;;3.00;99.90;;;;;;5062895;28;20689;-91
2022/02/08 00:39:53;;;;;;;6.00;4.13;;;3.00;99.90;;;;;;5060358;28;20463;-92
2022/02/08 00:42:23;;;;;;;10.50;5.00;;;3.00;99.90;;;;;;5077749;28;20471;-91
2022/02/08 00:44:55;;;;;;;8.20;3.90;;;3.10;99.90;;;;;;5092555;28;20501;-90
2022/02/08 00:47:29;;;;;;;10.30;5.30;;;3.10;99.90;;;;;;5073407;28;20512;-93
2022/02/08 00:50:04;;;;;;;7.83;4.63;;;3.10;99.90;;;;;;5082596;28;20524;-91
2022/02/08 00:52:33;;;;;;;6.90;4.23;;;3.20;99.90;;;;;;5083007;28;20486;-93
2022/02/08 00:55:00;;;;;;;8.93;4.93;;;3.20;99.90;;;;;;5081617;28;20442;-91
2022/02/08 00:57:27;;;;;;;8.90;4.83;;;3.20;99.90;;;;;;5077643;28;20479;-93
2022/02/08 00:59:54;;;;;;;8.83;4.40;;;3.20;99.90;;;;;;5078194;28;20451;-92
2022/02/08 01:02:21;;;;;;;9.83;4.17;;;3.20;99.90;;;;;;5069998;28;20484;-91
2022/02/08 01:04:53;;;;;;;7.73;4.90;;;3.20;99.90;;;;;;5056785;28;20452;-91
2022/02/08 01:07:21;;;;;;;6.20;4.57;;;3.20;99.90;;;;;;5063397;28;20450;-92
2022/02/08 01:09:53;;;;;;;9.80;4.40;;;3.20;99.90;;;;;;5073939;28;20469;-92
2022/02/08 01:12:20;;;;;;;6.53;4.50;;;3.10;99.90;;;;;;5057867;28;20477;-92
2022/02/08 01:14:50;;;;;;;8.90;3.93;;;3.10;99.90;;;;;;5065458;28;20447;-92
2022/02/08 01:17:17;;;;;;;7.17;3.87;;;3.10;99.90;;;;;;5058537;28;20475;-92
2022/02/08 01:19:50;;;;;;;7.53;3.93;;;3.20;99.90;;;;;;5084553;28;20940;-92
2022/02/08 01:22:23;;;;;;;9.67;4.43;;;3.20;99.90;;;;;;5077093;28;20491;-92
2022/02/08 01:24:52;;;;;;;4.57;4.03;;;3.20;99.90;;;;;;5078028;28;20423;-93
2022/02/08 01:27:24;;;;;;;6.63;4.37;;;3.20;99.90;;;;;;5078384;28;20442;-92
2022/02/08 01:29:57;;;;;;;10.43;4.00;;;3.10;99.90;;;;;;5065988;28;20448;-92
2022/02/08 01:32:50;;;;;;;9.00;4.07;;;3.10;99.90;;;;;;5077125;28;20471;-92
2022/02/08 01:35:42;;;;;;;6.60;3.97;;;3.10;99.90;;;;;;5061942;28;20446;-93
2022/02/08 01:38:14;;;;;;;5.10;3.20;;;3.00;99.90;;;;;;5076093;28;20449;-90
2022/02/08 01:41:03;;;;;;;8.60;3.80;;;3.00;99.90;;;;;;5080460;28;20478;-93
2022/02/08 01:44:07;;;;;;;10.40;3.80;;;3.00;99.90;;;;;;5078433;28;20423;-90
2022/02/08 01:46:48;;;;;;;6.50;2.60;;;3.10;99.90;;;;;;5058986;28;20441;-92
2022/02/08 01:49:29;;;;;;;8.27;4.20;;;3.10;99.90;;;;;;5056076;28;20538;-93
2022/02/08 01:51:58;;;;;;;5.40;2.37;;;3.10;99.90;;;;;;5071503;28;20509;-92
2022/02/08 01:54:25;;;;;;;7.97;2.90;;;3.20;99.90;;;;;;5056834;28;20445;-92
2022/02/08 01:56:54;;;;;;;6.30;2.13;;;3.30;99.90;;;;;;5055286;28;20480;-91
2022/02/08 01:59:22;;;;;;;7.13;1.67;;;3.30;99.90;;;;;;5059435;28;20450;-92
2022/02/08 02:01:50;;;;;;;7.83;2.27;;;3.50;99.90;;;;;;5074865;28;20481;-93
2022/02/08 02:04:16;;;;;;;5.07;1.60;;;3.60;99.90;;;;;;5047118;28;20463;-93
2022/02/08 02:06:43;;;;;;;4.83;3.60;;;3.70;99.90;;;;;;5058309;28;20448;-92
2022/02/08 02:09:10;;;;;;;5.40;1.70;;;3.80;99.90;;;;;;5076775;28;20529;-92
2022/02/08 02:11:37;;;;;;;6.20;2.23;;;3.90;99.90;;;;;;5069252;28;20478;-93
2022/02/08 02:14:06;;;;;;;4.53;2.30;;;4.10;99.90;;;;;;5058134;28;20519;-92
2022/02/08 02:16:43;;;;;;;6.47;1.77;;;4.10;99.90;;;;;;5062019;28;20523;-91
2022/02/08 02:19:10;;;;;;;3.43;2.03;;;4.10;99.90;;;;;;5059715;28;20444;-91
2022/02/08 02:21:37;;;;;;;7.00;2.30;;;4.10;99.90;;;;;;5055604;28;20479;-93
2022/02/08 02:24:07;;;;;;;2.13;1.80;;;4.10;99.90;;;;;;5070036;28;20444;-91
2022/02/08 02:26:34;;;;;;;11.00;3.07;;;4.10;99.90;;;;;;5093367;28;20423;-91
2022/02/08 02:29:00;;;;;;;3.43;1.63;;;4.10;99.90;;;;;;5078027;28;20458;-92
2022/02/08 02:31:27;;;;;;;5.10;2.80;;;4.10;99.90;;;;;;5055410;28;20464;-93
2022/02/08 02:33:54;;;;;;;5.90;2.27;;;4.20;99.70;;;;;;5047189;28;20474;-92
2022/02/08 02:36:21;;;;;;;6.83;2.77;;;4.20;99.70;;;;;;5061843;28;20480;-92
2022/02/08 02:38:48;;;;;;;12.70;3.40;;;4.30;99.60;;;;;;5064902;28;20457;-91
2022/02/08 02:41:16;;;;;;;7.73;2.47;;;4.30;99.40;;;;;;5076014;28;20972;-91
2022/02/08 02:43:45;;;;;;;4.20;1.73;;;4.40;99.40;;;;;;5069761;28;20964;-92
2022/02/08 02:46:11;;;;;;;5.57;2.30;;;4.40;99.20;;;;;;5073884;28;20468;-89
2022/02/08 02:48:38;;;;;;;9.63;2.40;;;4.40;99.10;;;;;;5092252;28;20894;-92
2022/02/08 02:51:05;;;;;;;6.13;2.07;;;4.40;99.00;;;;;;5062548;28;20460;-92
2022/02/08 02:53:32;;;;;;;8.50;2.30;;;4.40;99.10;;;;;;5057214;28;20468;-92
2022/02/08 02:55:59;;;;;;;6.33;2.03;;;4.40;99.10;;;;;;5067430;28;20511;-91
2022/02/08 02:58:30;;;;;;;10.53;2.17;;;4.40;98.60;;;;;;5085616;28;20448;-91
2022/02/08 03:01:13;;;;;;;6.80;1.60;;;4.50;98.50;;;;;;5076957;28;20454;-91
2022/02/08 03:03:52;;;;;;;3.67;1.80;;;4.50;98.50;;;;;;5071596;28;20461;-92
2022/02/08 03:17:39;;;;;;;5.70;2.17;;;4.60;98.10;;;;;;5075818;28;20481;-92
2022/02/08 03:20:07;;;;;;;3.70;1.57;;;4.70;98.20;;;;;;5068134;28;20478;-91
2022/02/08 03:22:35;;;;;;;5.30;2.30;;;4.70;98.20;;;;;;5076279;28;20460;-92
2022/02/08 03:25:01;;;;;;;5.60;2.13;;;4.70;98.20;;;;;;5073869;28;20632;-92
2022/02/08 03:27:28;;;;;;;4.00;1.83;;;4.70;97.80;;;;;;5074373;28;20457;-92
2022/02/08 03:29:56;;;;;;;5.67;2.53;;;4.80;97.70;;;;;;5074087;28;20459;-93
2022/02/08 03:32:24;;;;;;;6.63;2.57;;;4.80;97.80;;;;;;5074293;28;20475;-93
2022/02/08 03:34:51;;;;;;;5.93;1.90;;;4.90;97.40;;;;;;5093559;28;20434;-89
2022/02/08 03:37:19;;;;;;;5.30;2.07;;;5.00;97.10;;;;;;5089906;28;20842;-93
2022/02/08 03:39:55;;;;;;;9.20;2.33;;;5.00;97.10;;;;;;5074282;28;20443;-92
2022/02/08 03:42:29;;;;;;;6.50;2.20;;;5.00;97.10;;;;;;5056488;28;20893;-93
2022/02/08 03:44:58;;;;;;;6.17;1.93;;;5.00;97.20;;;;;;5054073;28;20448;-92
2022/02/08 03:47:25;;;;;;;7.67;2.10;;;5.00;97.10;;;;;;5053937;28;20451;-92
2022/02/08 03:49:52;;;;;;;4.03;1.60;;;5.00;97.20;;;;;;5068078;28;20458;-91
2022/02/08 03:52:23;;;;;;;10.83;2.37;;;5.00;97.20;;;;;;5081451;28;20493;-92
2022/02/08 03:54:50;;;;;;;4.50;1.97;;;5.00;97.40;;;;;;5075435;28;21013;-93
2022/02/08 03:57:17;;;;;;;5.30;1.90;;;4.90;97.80;;;;;;5069528;28;20864;-93
2022/02/08 03:59:46;;;;;;;4.90;1.60;;;4.80;97.80;;;;;;5057043;28;20458;-92
2022/02/08 04:02:29;;;;;;;5.03;2.27;;;4.70;97.80;;;;;;5057317;28;20468;-92
2022/02/08 04:05:00;;;;;;;6.50;2.13;;;4.70;97.80;;;;;;5078621;28;20471;-92
2022/02/08 04:07:33;;;;;;;3.30;1.90;;;4.70;97.80;;;;;;5080110;28;20444;-91
2022/02/08 04:10:03;;;;;;;6.23;2.40;;;4.80;97.90;;;;;;5093201;28;20443;-93
2022/02/08 04:12:39;;;;;;;8.00;2.27;;;4.80;97.90;;;;;;5091290;28;20583;-93
2022/02/08 04:15:27;;;;;;;8.23;2.77;;;4.80;97.80;;;;;;5078311;28;20436;-92
2022/02/08 04:18:16;;;;;;;1.90;1.27;;;4.80;97.90;;;;;;5089704;28;20503;-92
2022/02/08 04:32:12;;;;;;;5.33;2.10;;;5.00;97.60;;;;;;5057257;28;20451;-93
2022/02/08 04:34:52;;;;;;;5.83;2.23;;;5.00;97.60;;;;;;5057078;28;20463;-93
2022/02/08 04:42:58;;;;;;;7.07;2.50;;;4.90;97.60;;;;;;5065672;28;20551;-91
2022/02/08 04:45:30;;;;;;;6.83;2.50;;;5.00;97.70;;;;;;5071662;28;20859;-90
2022/02/08 04:48:06;;;;;;;7.97;2.07;;;5.00;97.50;;;;;;5058147;28;20508;-91
2022/02/08 04:50:36;;;;;;;3.57;2.03;;;4.90;97.40;;;;;;5062112;28;20451;-91
2022/02/08 04:53:09;;;;;;;4.03;2.30;;;4.90;97.60;;;;;;5108490;22;20577;-89
2022/02/08 04:55:50;;;;;;;7.20;2.00;;;4.90;97.60;;;;;;5067553;28;20454;-90
2022/02/08 04:58:26;;;;;;;5.20;2.63;;;4.90;97.50;;;;;;5061361;28;20470;-89
2022/02/08 05:01:04;;;;;;;5.97;2.77;;;5.00;97.70;;;;;;5065768;28;20444;-90
2022/02/08 05:37:17;;;;;;;4.50;2.33;;;5.00;97.20;;;;;;5077445;28;20538;-92
2022/02/08 05:42:32;;;;;;;5.23;1.90;;;5.00;97.20;;;;;;5097028;28;20419;-90
2022/02/08 05:45:03;;;;;;;6.23;2.27;;;5.00;97.30;;;;;;5100105;28;20474;-91
2022/02/08 05:47:30;;;;;;;10.50;2.20;;;5.10;97.20;;;;;;5099452;28;20456;-92
2022/02/08 05:50:08;;;;;;;10.73;2.30;;;5.00;97.40;;;;;;5098012;28;20443;-91
2022/02/08 05:55:17;;;;;;;9.40;3.03;;;5.10;97.40;;;;;;5063399;28;20512;-91
2022/02/08 05:57:45;;;;;;;12.90;2.40;;;5.10;97.60;;;;;;5066000;28;20474;-91
2022/02/08 06:00:13;;;;;;;5.37;2.03;;;5.10;97.60;;;;;;5066894;28;20442;-91
2022/02/08 06:02:40;;;;;;;14.30;2.47;;;5.00;97.50;;;;;;5087948;28;20439;-90
2022/02/08 06:05:12;;;;;;;4.37;2.17;;;5.10;97.50;;;;;;5077409;28;20889;-90
2022/02/08 06:07:39;;;;;;;4.73;2.60;;;5.10;97.70;;;;;;5077017;28;20444;-90
2022/02/08 06:10:06;;;;;;;13.53;2.80;;;5.10;97.70;;;;;;5080072;28;20791;-90
2022/02/08 06:12:43;;;;;;;4.53;2.23;;;5.10;97.60;;;;;;5082504;28;20448;-90
2022/02/08 06:15:13;;;;;;;6.43;2.90;;;5.10;97.80;;;;;;5088121;28;20506;-91
2022/02/08 06:17:40;;;;;;;6.77;2.67;;;5.10;98.00;;;;;;5075465;28;20470;-91
2022/02/08 06:20:08;;;;;;;5.17;2.50;;;5.10;97.90;;;;;;5073004;28;20452;-91
2022/02/08 06:22:36;;;;;;;6.73;2.33;;;5.10;97.60;;;;;;5064636;28;20468;-91
2022/02/08 06:25:04;;;;;;;4.97;2.27;;;5.00;97.70;;;;;;5060171;28;20413;-91
2022/02/08 06:27:31;;;;;;;7.60;2.80;;;5.10;97.80;;;;;;5060310;28;20435;-91
2022/02/08 06:30:00;;;;;;;4.30;1.93;;;5.10;97.80;;;;;;5077604;28;20883;-91
2022/02/08 06:32:28;;;;;;;12.20;2.70;;;5.00;97.70;;;;;;5066379;28;20803;-90
2022/02/08 06:34:57;;;;;;;6.53;2.67;;;5.00;97.80;;;;;;5065901;28;20474;-90
2022/02/08 06:37:26;;;;;;;15.57;2.37;;;5.00;98.00;;;;;;5079726;28;20506;-91
2022/02/08 06:39:53;;;;;;;6.73;2.60;;;5.00;98.00;;;;;;5065918;28;20537;-91
2022/02/08 06:42:20;;;;;;;7.97;1.80;;;5.00;97.90;;;;;;5056691;28;20538;-90
2022/02/08 06:44:49;;;;;;;4.50;2.23;;;5.10;97.90;;;;;;5067961;28;20502;-90
2022/02/08 06:47:17;;;;;;;7.77;2.30;;;5.10;98.00;;;;;;5064129;28;20446;-91
2022/02/08 06:49:44;;;;;;;7.37;2.27;;;5.10;97.90;;;;;;5059306;28;20456;-90
2022/02/08 06:52:11;;;;;;;7.53;2.90;;;5.10;98.20;;;;;;5060917;28;20448;-91
2022/02/08 06:54:38;;;;;;;5.07;2.40;;;5.10;97.90;;;;;;5062483;28;20463;-90
2022/02/08 06:57:12;;;;;;;17.27;2.70;;;5.10;97.80;;;;;;5060054;28;20437;-91
2022/02/08 06:59:40;;;;;;;11.13;3.00;;;5.10;97.60;;;;;;5062761;28;20470;-90
2022/02/08 07:02:07;;;;;;;12.00;3.70;;;5.10;97.80;;;;;;5077971;28;20415;-92
2022/02/08 07:04:36;;;;;;;11.40;2.63;;;5.20;97.90;;;;;;5069120;28;20502;-91
2022/02/08 07:07:04;;;;;;;8.13;2.23;;;5.20;97.80;;;;;;5074258;28;20446;-91
2022/02/08 07:09:31;;;;;;;6.57;2.40;;;5.30;97.80;;;;;;5064267;28;20562;-90
2022/02/08 07:11:59;;;;;;;3.20;1.70;;;5.30;97.60;;;;;;5058546;28;20494;-91
2022/02/08 07:14:31;;;;;;;5.43;2.60;;;5.40;97.30;;;;;;5057846;28;20488;-90
2022/02/08 07:16:58;;;;;;;7.27;2.70;;;5.50;97.10;;;;;;5063801;28;20476;-89
2022/02/08 07:19:26;;;;;;;6.90;2.43;;;5.60;97.20;;;;;;5072576;28;20846;-90
2022/02/08 07:21:54;;;;;;;6.20;2.10;;;5.60;97.20;;;;;;5060620;28;20484;-90
2022/02/08 07:24:21;;;;;;;3.67;2.07;;;5.70;97.00;;;;;;5064869;28;20467;-89
2022/02/08 07:26:51;;;;;;;7.50;2.37;;;5.80;97.00;;;;;;5062406;28;20459;-90
2022/02/08 07:29:18;;;;;;;6.97;2.90;;;5.80;97.00;;;;;;5066503;28;20468;-90
2022/02/08 07:31:52;;;;;;;7.47;2.93;;;5.80;97.00;;;;;;5066038;28;20532;-90
2022/02/08 07:34:22;;;;;;;5.63;2.50;;;5.90;96.90;;;;;;5062802;28;20551;-90
2022/02/08 07:36:56;;;;;;;5.10;2.50;;;6.00;96.70;;;;;;5064402;28;20929;-90
2022/02/08 07:39:34;;;;;;;5.43;2.90;;;6.00;96.30;;;;;;5061583;28;20471;-89
2022/02/08 07:42:01;;;;;;;8.67;2.57;;;6.10;96.50;;;;;;5061327;28;20474;-89
2022/02/08 07:44:28;;;;;;;6.20;2.30;;;6.10;96.40;;;;;;5062888;28;20464;-90
2022/02/08 07:46:54;;;;;;;4.53;2.40;;;6.20;96.30;;;;;;5072657;28;20526;-88
2022/02/08 07:49:21;;;;;;;11.07;2.90;;;6.40;96.10;;;;;;5075483;28;20437;-89
2022/02/08 07:51:48;;;;;;;6.27;2.10;;;6.40;96.20;;;;;;5072464;28;20439;-89
2022/02/08 07:54:15;;;;;;;5.63;2.00;;;6.50;95.90;;;;;;5066029;28;20468;-89
2022/02/08 07:56:43;;;;;;;7.60;2.43;;;6.60;95.80;;;;;;5068153;28;20452;-87
2022/02/08 07:59:11;;;;;;;9.10;2.40;;;6.60;95.60;;;;;;5086559;28;20498;-87
2022/02/08 08:01:38;;;;;;;8.07;2.83;;;6.60;95.80;;;;;;5069704;28;20444;-89
2022/02/08 08:04:05;;;;;;;5.03;2.30;;;6.60;95.30;;;;;;5072530;28;20483;-88
2022/02/08 08:06:32;;;;;;;4.07;2.20;;;6.70;95.60;;;;;;5074698;28;20440;-88
2022/02/08 08:09:02;;;;;;;7.20;2.67;;;6.70;95.20;;;;;;5066521;28;20444;-91
2022/02/08 08:11:35;;;;;;;6.60;2.77;;;6.60;95.10;;;;;;5071260;28;20440;-89
2022/02/08 08:14:06;;;;;;;7.30;2.73;;;6.60;95.30;;;;;;5066554;28;20907;-92
2022/02/08 08:16:45;;;;;;;7.33;2.83;;;6.70;95.10;;;;;;5062791;28;20943;-85
2022/02/08 08:19:23;;;;;;;5.37;2.73;;;6.70;95.00;;;;;;5070727;28;20478;-84
2022/02/08 08:21:50;;;;;;;12.67;3.93;;;6.80;95.30;;;;;;5096290;28;20462;-85
2022/02/08 08:24:17;;;;;;;8.17;3.20;;;7.00;95.30;;;;;;5094651;28;20460;-84
2022/02/08 08:26:44;;;;;;;6.63;2.20;;;7.00;95.00;;;;;;5086565;28;20451;-84
2022/02/08 08:29:12;;;;;;;8.70;3.07;;;7.00;95.00;;;;;;5093277;28;20448;-81
2022/02/08 08:31:39;;;;;;;11.53;3.17;;;7.00;95.00;;;;;;5097396;28;20447;-82
2022/02/08 08:34:06;;;;;;;8.13;3.07;;;7.00;95.00;;;;;;5075505;28;20468;-90
2022/02/08 08:36:33;;;;;;;5.23;3.20;;;7.00;95.20;;;;;;5120527;22;20496;-90
2022/02/08 08:39:01;;;;;;;4.83;2.57;;;7.10;95.10;;;;;;5074267;28;20479;-88
2022/02/08 08:41:33;;;;;;;7.80;3.20;;;7.20;95.00;;;;;;5081401;28;20453;-88
2022/02/08 08:44:31;;;;;;;5.57;2.47;;;7.40;95.00;;;;;;5076354;28;20464;-88
2022/02/08 08:52:31;;;;;;;11.20;2.60;;;7.40;94.80;;;;;;5061949;28;20438;-89
2022/02/08 08:54:59;;;;;;;7.77;2.87;;;7.30;94.60;;;;;;5059367;28;20558;-90
2022/02/08 08:57:26;;;;;;;8.93;4.47;;;7.30;94.50;;;;;;5060621;28;20815;-90
2022/02/08 08:59:53;;;;;;;8.47;2.70;;;7.30;94.60;;;;;;5058536;28;20477;-89
2022/02/08 09:02:21;;;;;;;5.43;1.97;;;7.40;94.80;;;;;;5065432;28;20825;-87
2022/02/08 09:04:51;;;;;;;6.47;2.07;;;7.40;94.40;;;;;;5064253;28;20526;-90
2022/02/08 09:07:17;;;;;;;10.10;2.43;;;7.50;94.20;;;;;;5058950;28;20452;-90
2022/02/08 09:09:45;;;;;;;5.83;2.17;;;7.80;94.20;;;;;;5059578;28;20436;-90
2022/02/08 09:12:22;;;;;;;8.30;2.27;;;8.10;93.70;;;;;;5066130;28;20510;-91
2022/02/08 09:21:03;;;;;;;4.23;1.97;;;8.90;91.80;;;;;;5061116;28;20424;-88
2022/02/08 09:24:09;;;;;;;12.13;2.77;;;9.10;91.50;;;;;;5039629;28;20457;-88
2022/02/08 09:27:00;;;;;;;5.77;2.23;;;9.50;91.50;;;;;;5055750;28;20436;-89
2022/02/08 09:29:37;;;;;;;6.37;2.90;;;9.30;90.70;;;;;;5064550;28;20938;-89
2022/02/08 09:32:13;;;;;;;6.50;2.67;;;9.50;91.50;;;;;;5058855;28;20452;-87
2022/02/08 09:34:43;;;;;;;5.73;2.10;;;9.60;90.60;;;;;;5056933;28;20468;-89
2022/02/08 09:37:11;;;;;;;5.97;2.00;;;9.30;90.90;;;;;;5059973;28;20456;-89
2022/02/08 09:39:38;;;;;;;13.60;2.80;;;9.80;91.40;;;;;;5061456;28;20472;-89
2022/02/08 09:42:06;;;;;;;7.43;2.60;;;9.80;90.70;;;;;;5069436;28;20452;-89
2022/02/08 09:44:37;;;;;;;5.90;2.60;;;10.20;90.40;;;;;;5072472;28;20484;-88
2022/02/08 09:47:12;;;;;;;6.07;2.00;;;10.10;89.10;;;;;;5076978;28;20437;-90
2022/02/08 09:49:51;;;;;;;5.07;2.33;;;9.80;90.30;;;;;;5079308;28;20513;-88
2022/02/08 09:52:19;;;;;;;4.70;1.93;;;10.60;90.20;;;;;;5077386;28;20448;-87
2022/02/08 09:54:47;;;;;;;4.83;2.50;;;10.70;88.40;;;;;;5066399;28;20484;-90
2022/02/08 09:57:15;;;;;;;5.73;2.27;;;10.80;87.50;;;;;;5063343;28;20444;-89
2022/02/08 09:59:44;;;;;;;6.90;2.80;;;11.00;86.40;;;;;;5069106;28;20463;-87
2022/02/08 10:02:11;;;;;;;10.63;2.57;;;10.70;86.60;;;;;;5065293;28;20556;-85
2022/02/08 10:04:38;;;;;;;5.57;2.53;;;10.70;87.40;;;;;;5064798;28;20479;-88
2022/02/08 10:07:13;;;;;;;9.77;2.27;;;10.90;86.60;;;;;;5067799;28;20436;-86
2022/02/08 10:09:41;;;;;;;4.10;1.83;;;10.70;85.70;;;;;;5074809;28;20435;-87
2022/02/08 10:12:09;;;;;;;5.57;2.30;;;11.20;87.80;;;;;;5064744;28;20455;-88
2022/02/08 10:18:53;;;;;;;6.10;1.93;;;12.20;86.30;;;;;;5065067;28;20470;-87
2022/02/08 10:21:21;;;;;;;4.20;2.00;;;14.10;77.80;;;;;;5063942;28;20498;-89
2022/02/08 10:23:25;;;;;;;3.80;2.50;;;13.40;77.00;;;;;;5057653;28;20483;-89
2022/02/08 10:26:00;;;;;;;4.43;2.00;;;11.80;80.20;;;;;;5068921;28;20436;-87
2022/02/08 10:28:52;;;;;;;5.20;2.50;;;11.60;82.40;;;;;;5066983;28;20444;-89
2022/02/08 10:31:41;;;;;;;7.93;2.47;;;11.70;82.90;;;;;;5074921;28;20430;-89
2022/02/08 10:40:00;;;;;;;6.30;1.90;;;15.60;75.90;;;;;;5042090;28;20547;-88
2022/02/08 10:42:29;;;;;;;6.13;1.77;;;16.00;69.00;;;;;;5052170;28;20513;-88
2022/02/08 10:44:56;;;;;;;5.30;2.60;;;14.40;70.90;;;;;;5076717;28;20455;-86
2022/02/08 10:47:36;;;;;;;5.20;1.60;;;13.70;74.60;;;;;;5069829;28;20474;-89
2022/02/08 10:50:06;;;;;;;7.40;2.10;;;13.00;76.40;;;;;;5074571;28;20453;-89
2022/02/08 10:52:33;;;;;;;5.30;2.63;;;14.20;76.70;;;;;;5057862;28;20451;-89
2022/02/08 10:55:09;;;;;;;4.33;1.83;;;15.40;73.80;;;;;;5062121;28;20479;-88
2022/02/08 10:57:47;;;;;;;8.50;2.13;;;15.50;70.60;;;;;;5057158;28;20517;-89
2022/02/08 11:00:20;;;;;;;4.50;2.10;;;15.70;72.00;;;;;;5056416;28;20635;-87
2022/02/08 11:02:49;;;;;;;5.07;2.00;;;16.50;68.70;;;;;;5053645;28;20460;-88
2022/02/08 11:05:23;;;;;;;6.50;2.10;;;16.90;66.30;;;;;;5054763;28;20538;-88
2022/02/08 11:08:14;;;;;;;5.93;1.97;;;17.10;66.20;;;;;;5056658;28;20452;-87
2022/02/08 11:11:01;;;;;;;3.53;1.80;;;17.60;62.50;;;;;;5056757;28;20448;-88
2022/02/08 11:16:21;;;;;;;6.50;2.70;;;17.70;61.80;;;;;;5055834;28;20515;-88
2022/02/08 11:19:25;;;;;;;5.87;1.97;;;19.30;60.30;;;;;;5061212;28;20479;-89
2022/02/08 11:22:01;;;;;;;4.40;2.50;;;18.70;58.20;;;;;;5062183;28;20965;-88
2022/02/08 11:24:39;;;;;;;4.47;2.40;;;16.90;60.40;;;;;;5059679;28;20464;-88
2022/02/08 11:27:11;;;;;;;5.73;2.50;;;16.50;63.90;;;;;;5058289;28;20535;-90
2022/02/08 11:29:42;;;;;;;4.63;2.40;;;15.60;65.80;;;;;;5057959;28;20533;-88
2022/02/08 11:32:24;;;;;;;3.23;1.40;;;14.60;69.20;;;;;;5057274;28;20890;-89
2022/02/08 11:43:35;;;;;;;9.23;2.63;;;13.40;75.40;;;;;;5050279;28;20463;-90
2022/02/08 11:46:15;;;;;;;5.23;1.90;;;13.70;76.30;;;;;;5070247;28;20451;-87
2022/02/08 11:54:35;;;;;;;4.80;1.37;;;14.10;80.00;;;;;;5065270;28;20460;-89
2022/02/08 11:57:50;;;;;;;3.47;2.10;;;15.30;80.30;;;;;;5067692;28;20420;-88
2022/02/08 12:00:20;;;;;;;5.40;2.03;;;16.90;76.70;;;;;;5059521;28;20489;-88
2022/02/08 12:03:00;;;;;;;6.70;2.10;;;16.60;73.50;;;;;;5060923;28;20455;-89
2022/02/08 12:05:45;;;;;;;4.70;1.53;;;16.50;73.60;;;;;;5061910;28;20448;-88
2022/02/08 12:08:15;;;;;;;4.70;2.33;;;16.40;75.30;;;;;;5066748;28;20471;-89
2022/02/08 12:10:47;;;;;;;8.80;2.27;;;15.90;76.20;;;;;;5060916;28;20475;-89
2022/02/08 12:13:45;;;;;;;3.47;1.80;;;15.40;77.90;;;;;;5068606;28;20453;-86
2022/02/08 12:33:06;;;;;;;3.10;1.57;;;15.80;79.60;;;;;;5061168;28;20478;-88
2022/02/08 12:35:57;;;;;;;7.10;2.90;;;16.40;78.00;;;;;;5060540;28;20452;-87
2022/02/08 12:55:50;;;;;;;9.87;5.20;;;15.10;80.50;;;;;;5055607;28;20447;-88
2022/02/08 12:58:32;;;;;;;4.63;3.13;;;14.90;81.80;;;;;;5079914;28;20437;-86
2022/02/08 13:01:25;;;;;;;6.23;4.10;;;14.70;82.40;;;;;;5078643;28;20415;-87
2022/02/08 13:04:08;;;;;;;6.43;2.63;;;14.60;82.70;;;;;;5074469;28;20497;-88
2022/02/08 14:02:07;;;;;;;3.10;1.63;;;12.80;91.10;;;;;;5073119;28;20532;-88
2022/02/08 14:07:22;;;;;;;3.37;1.33;;;12.60;91.00;;;;;;5070156;28;20440;-87
2022/02/08 14:09:58;;;;;;;5.90;1.73;;;12.70;90.90;;;;;;5074297;28;20453;-87
2022/02/08 14:12:58;;;;;;;4.80;1.67;;;12.60;90.90;;;;;;5077191;28;20487;-87
2022/02/08 14:15:50;;;;;;;4.70;1.07;;;12.60;91.20;;;;;;5059110;28;20437;-87
2022/02/08 14:18:41;;;;;;;3.53;1.13;;;12.60;90.90;;;;;;5062713;28;20481;-88
2022/02/08 14:21:13;;;;;;;2.90;1.10;;;12.60;91.40;;;;;;5059976;28;20883;-88
2022/02/08 14:23:54;;;;;;;2.00;1.00;;;12.60;91.20;;;;;;5058496;28;20496;-86
2022/02/08 14:32:08;;;;;;;5.93;3.40;;;12.60;91.60;;;;;;5062454;28;20447;-88
2022/02/08 15:05:39;;;;;;;6.03;4.47;;;11.90;92.70;;;;;;5059729;28;20463;-87
2022/02/08 15:08:16;;;;;;;9.03;3.30;;;12.00;92.70;;;;;;5063851;28;20460;-89
2022/02/08 15:10:47;;;;;;;4.93;1.60;;;11.90;92.90;;;;;;5060285;28;20486;-89
2022/02/08 15:13:17;;;;;;;4.37;1.40;;;11.70;92.70;;;;;;5061763;28;20496;-89
2022/02/08 15:16:01;;;;;;;2.80;1.93;;;11.60;93.00;;;;;;5067531;28;20434;-88
2022/02/08 15:18:32;;;;;;;3.40;1.40;;;11.50;93.40;;;;;;5076268;28;20448;-88
2022/02/08 15:21:00;;;;;;;2.53;1.20;;;11.50;93.40;;;;;;5076121;28;20492;-86
2022/02/08 15:23:27;;;;;;;7.40;1.50;;;11.50;93.40;;;;;;5071825;28;20464;-89
2022/02/08 15:25:56;;;;;;;4.20;1.67;;;11.50;93.50;;;;;;5064821;28;20463;-88
2022/02/08 15:28:24;;;;;;;3.23;1.73;;;11.50;93.60;;;;;;5068173;28;20452;-88
2022/02/08 15:30:53;;;;;;;5.13;1.67;;;11.50;93.70;;;;;;5068624;28;20443;-88
2022/02/08 15:33:20;;;;;;;2.60;1.87;;;11.50;93.70;;;;;;5062680;28;20562;-88
2022/02/08 15:35:48;;;;;;;7.53;2.30;;;11.40;93.70;;;;;;5060927;28;20454;-89
2022/02/08 15:38:15;;;;;;;6.07;2.40;;;11.40;93.90;;;;;;5060360;28;20793;-88
2022/02/08 15:40:42;;;;;;;5.53;2.00;;;11.10;94.20;;;;;;5066127;28;20480;-87
2022/02/08 15:43:10;;;;;;;5.83;2.70;;;11.00;94.60;;;;;;5074111;28;20468;-87
2022/02/08 15:45:42;;;;;;;6.00;1.90;;;11.00;94.90;;;;;;5060770;28;20448;-88
2022/02/08 15:48:12;;;;;;;3.17;1.20;;;11.00;94.90;;;;;;5060672;28;20515;-88
2022/02/08 15:50:50;;;;;;;3.57;1.20;;;11.00;95.10;;;;;;5061917;28;20446;-88
2022/02/08 15:53:47;;;;;;;6.30;1.70;;;10.90;95.30;;;;;;5062838;28;20550;-88
2022/02/08 15:56:35;;;;;;;10.23;4.53;;;10.90;95.60;;;;;;5052442;28;20472;-87
2022/02/08 16:07:20;;;;;;;2.80;1.37;;;10.80;97.30;;;;;;5065427;28;20435;-88
2022/02/08 16:09:52;;;;;;;3.23;1.50;;;10.80;97.50;;;;;;5061383;28;20438;-90
2022/02/08 16:12:33;;;;;;;2.83;2.00;;;10.70;97.70;;;;;;5055930;28;20454;-90
2022/02/08 16:17:56;;;;;;;2.80;1.83;;;10.60;98.30;;;;;;5055560;28;20448;-87
2022/02/08 16:20:36;;;;;;;6.90;3.83;;;10.60;98.60;;;;;;5059610;28;20502;-88
2022/02/08 16:23:32;;;;;;;7.50;4.50;;;10.60;98.50;;;;;;5072171;28;20444;-88
2022/02/08 16:26:10;;;;;;;9.33;3.40;;;10.60;98.60;;;;;;5061325;28;20432;-90
2022/02/08 16:28:50;;;;;;;3.37;2.17;;;10.60;98.50;;;;;;5068679;28;20480;-89
2022/02/08 16:31:35;;;;;;;4.07;2.07;;;10.60;98.40;;;;;;5062532;28;20515;-89
2022/02/08 16:51:35;;;;;;;2.10;1.30;;;10.60;98.60;;;;;;5064559;28;20426;-86
2022/02/08 16:53:53;;;;;;;3.97;2.23;;;10.60;98.60;;;;;;5055670;28;20543;-89
2022/02/08 16:56:24;;;;;;;5.33;2.77;;;10.60;98.70;;;;;;5062094;28;20531;-83
2022/02/08 16:58:54;;;;;;;7.67;3.20;;;10.50;99.00;;;;;;5062004;28;20464;-84
2022/02/08 17:01:26;;;;;;;2.83;1.60;;;10.50;99.20;;;;;;5065255;28;20520;-86
2022/02/08 17:06:30;;;;;;;7.93;2.67;;;10.40;99.20;;;;;;5050015;22;20476;-92
2022/02/08 17:09:07;;;;;;;4.97;2.20;;;10.50;99.20;;;;;;4998324;28;20448;-91
2022/02/08 17:11:42;;;;;;;3.60;1.73;;;10.50;99.00;;;;;;4990165;28;20457;-90
2022/02/08 17:17:16;;;;;;;4.10;1.57;;;10.60;98.90;;;;;;4971636;28;20433;-91
2022/02/08 17:47:57;;;;;;;4.57;3.07;;;10.70;98.90;;;;;;4954367;28;20426;-91
2022/02/08 17:50:45;;;;;;;6.07;2.70;;;10.70;98.90;;;;;;4973694;28;20463;-92
2022/02/08 17:53:54;;;;;;;5.50;2.50;;;10.70;98.90;;;;;;4973274;28;20464;-92
2022/02/08 17:56:29;;;;;;;5.53;2.70;;;10.60;98.90;;;;;;4972341;28;20455;-93
2022/02/08 17:59:05;;;;;;;6.97;3.20;;;10.60;99.00;;;;;;4979096;28;20451;-93
2022/02/08 18:01:53;;;;;;;7.23;4.30;;;10.60;99.10;;;;;;4974517;28;20480;-91
2022/02/08 18:04:53;;;;;;;6.20;3.40;;;10.60;99.10;;;;;;4974549;28;20480;-93
2022/02/08 18:17:11;;;;;;;6.53;3.60;;;10.60;99.10;;;;;;4941818;28;20459;-91
2022/02/08 18:20:02;;;;;;;6.43;3.20;;;10.60;99.20;;;;;;4994045;28;20420;-93
2022/02/08 18:23:37;;;;;;;7.40;2.20;;;10.60;98.90;;;;;;4983532;28;20833;-92
2022/02/08 19:12:25;;;;;;;4.50;3.07;;;10.40;98.50;;;;;;4994644;28;20441;-90
2022/02/08 19:17:46;;;;;;;4.57;3.03;;;10.40;98.50;;;;;;4990742;28;20436;-91